Dumont, New Jersey
Current Conditions -  °F | °C
As of 9:51 AM on Monday 24 Nov 2014 (Local Time) from KTEB Reporting Station
Overcast Overcast  
Wind Chill: 65°   Ceiling: 2200
Heat Index: 65°   Visibility: 10mi
Dew Point: 60°   Wind: 12mph
Humidity: 84%   Direction: 170°S
Pressure: 29.66"   Gusts: NA
Location:  40.94°N, 73.99°W
Report Text: KTEB 241451Z 17010KT 10SM BKN022 BKN028 OVC046 18/16 A2966 RMK AO2 RAE1352 SLP043 60001 T01830156 58003
Loading
Personal Weather Stations






























Interactive Weather Map New forecast layout! Learn more

10-Day Weather Forecast

Advertisements
Track Severe Weather on mobile